sensor_id;sensor_type;location;lat;lon;timestamp;P1;durP1;ratioP1;P2;durP2;ratioP2
51838;SDS011;37886;53.174;6.368;2023-03-01T00:01:26;165.68;;;42.42;;
51838;SDS011;37886;53.174;6.368;2023-03-01T00:03:54;83.05;;;41.45;;
51838;SDS011;37886;53.174;6.368;2023-03-01T00:06:21;88.90;;;40.58;;
51838;SDS011;37886;53.174;6.368;2023-03-01T00:08:47;82.55;;;39.15;;
51838;SDS011;37886;53.174;6.368;2023-03-01T00:11:14;74.03;;;38.72;;
51838;SDS011;37886;53.174;6.368;2023-03-01T00:13:42;90.72;;;40.45;;
51838;SDS011;37886;53.174;6.368;2023-03-01T00:16:10;100.35;;;39.15;;
51838;SDS011;37886;53.174;6.368;2023-03-01T00:18:40;211.10;;;45.45;;
51838;SDS011;37886;53.174;6.368;2023-03-01T00:21:06;561.33;;;56.33;;
51838;SDS011;37886;53.174;6.368;2023-03-01T00:23:35;128.25;;;44.08;;
51838;SDS011;37886;53.174;6.368;2023-03-01T00:26:01;136.63;;;45.38;;
51838;SDS011;37886;53.174;6.368;2023-03-01T00:28:31;290.63;;;48.95;;
51838;SDS011;37886;53.174;6.368;2023-03-01T00:31:01;212.45;;;50.35;;
51838;SDS011;37886;53.174;6.368;2023-03-01T00:33:28;169.70;;;46.85;;
51838;SDS011;37886;53.174;6.368;2023-03-01T00:35:54;153.55;;;46.15;;
51838;SDS011;37886;53.174;6.368;2023-03-01T00:38:19;125.25;;;47.28;;
51838;SDS011;37886;53.174;6.368;2023-03-01T00:40:45;125.18;;;45.53;;
51838;SDS011;37886;53.174;6.368;2023-03-01T00:43:11;266.33;;;49.10;;
51838;SDS011;37886;53.174;6.368;2023-03-01T00:45:36;164.98;;;48.35;;
51838;SDS011;37886;53.174;6.368;2023-03-01T00:48:02;188.30;;;47.63;;
51838;SDS011;37886;53.174;6.368;2023-03-01T00:50:28;196.80;;;47.40;;
51838;SDS011;37886;53.174;6.368;2023-03-01T00:52:54;262.45;;;48.75;;
51838;SDS011;37886;53.174;6.368;2023-03-01T00:55:20;217.27;;;48.30;;
51838;SDS011;37886;53.174;6.368;2023-03-01T00:57:46;172.32;;;46.22;;
51838;SDS011;37886;53.174;6.368;2023-03-01T01:00:12;472.23;;;56.80;;
51838;SDS011;37886;53.174;6.368;2023-03-01T01:02:38;297.35;;;46.92;;
51838;SDS011;37886;53.174;6.368;2023-03-01T01:05:04;329.15;;;47.85;;
51838;SDS011;37886;53.174;6.368;2023-03-01T01:07:30;201.95;;;39.92;;
51838;SDS011;37886;53.174;6.368;2023-03-01T01:09:55;246.45;;;42.53;;
51838;SDS011;37886;53.174;6.368;2023-03-01T01:12:21;183.38;;;36.83;;
51838;SDS011;37886;53.174;6.368;2023-03-01T01:14:47;384.95;;;49.45;;
51838;SDS011;37886;53.174;6.368;2023-03-01T01:17:12;234.10;;;44.00;;
51838;SDS011;37886;53.174;6.368;2023-03-01T01:19:38;119.85;;;34.13;;
51838;SDS011;37886;53.174;6.368;2023-03-01T01:22:04;168.65;;;33.72;;
51838;SDS011;37886;53.174;6.368;2023-03-01T01:24:30;150.82;;;35.90;;
51838;SDS011;37886;53.174;6.368;2023-03-01T01:26:55;118.40;;;33.80;;
51838;SDS011;37886;53.174;6.368;2023-03-01T01:29:21;80.07;;;35.95;;
51838;SDS011;37886;53.174;6.368;2023-03-01T01:31:47;96.80;;;36.25;;
51838;SDS011;37886;53.174;6.368;2023-03-01T01:34:17;114.32;;;33.40;;
51838;SDS011;37886;53.174;6.368;2023-03-01T01:36:48;55.55;;;29.98;;
51838;SDS011;37886;53.174;6.368;2023-03-01T01:39:19;159.93;;;36.00;;
51838;SDS011;37886;53.174;6.368;2023-03-01T01:41:45;130.13;;;34.40;;
51838;SDS011;37886;53.174;6.368;2023-03-01T01:46:53;153.70;;;34.08;;
51838;SDS011;37886;53.174;6.368;2023-03-01T01:49:53;140.75;;;34.08;;
51838;SDS011;37886;53.174;6.368;2023-03-01T01:54:53;266.23;;;40.20;;
51838;SDS011;37886;53.174;6.368;2023-03-01T01:57:36;141.38;;;32.15;;
51838;SDS011;37886;53.174;6.368;2023-03-01T02:00:12;113.40;;;32.88;;
51838;SDS011;37886;53.174;6.368;2023-03-01T02:02:43;135.05;;;31.48;;
51838;SDS011;37886;53.174;6.368;2023-03-01T02:05:12;158.10;;;31.55;;
51838;SDS011;37886;53.174;6.368;2023-03-01T02:07:44;94.00;;;26.20;;
51838;SDS011;37886;53.174;6.368;2023-03-01T02:10:12;149.48;;;33.97;;
51838;SDS011;37886;53.174;6.368;2023-03-01T02:12:37;193.25;;;34.05;;
51838;SDS011;37886;53.174;6.368;2023-03-01T02:15:05;182.95;;;33.17;;
51838;SDS011;37886;53.174;6.368;2023-03-01T02:17:40;152.35;;;30.88;;
51838;SDS011;37886;53.174;6.368;2023-03-01T02:20:15;110.40;;;27.33;;
51838;SDS011;37886;53.174;6.368;2023-03-01T02:22:45;169.00;;;29.40;;
51838;SDS011;37886;53.174;6.368;2023-03-01T02:30:38;128.95;;;26.08;;
51838;SDS011;37886;53.174;6.368;2023-03-01T02:33:25;97.18;;;24.38;;
51838;SDS011;37886;53.174;6.368;2023-03-01T02:35:52;115.63;;;27.05;;
51838;SDS011;37886;53.174;6.368;2023-03-01T02:38:20;136.55;;;26.50;;
51838;SDS011;37886;53.174;6.368;2023-03-01T02:40:47;146.20;;;25.17;;
51838;SDS011;37886;53.174;6.368;2023-03-01T02:43:15;193.43;;;32.25;;
51838;SDS011;37886;53.174;6.368;2023-03-01T02:45:47;325.33;;;36.70;;
51838;SDS011;37886;53.174;6.368;2023-03-01T02:48:18;304.60;;;36.28;;
51838;SDS011;37886;53.174;6.368;2023-03-01T02:56:11;172.90;;;29.70;;
51838;SDS011;37886;53.174;6.368;2023-03-01T02:58:39;110.88;;;27.02;;
51838;SDS011;37886;53.174;6.368;2023-03-01T03:01:11;218.75;;;31.80;;
51838;SDS011;37886;53.174;6.368;2023-03-01T03:03:40;113.70;;;25.17;;
51838;SDS011;37886;53.174;6.368;2023-03-01T03:06:05;274.15;;;34.60;;
51838;SDS011;37886;53.174;6.368;2023-03-01T03:08:31;174.25;;;30.30;;
51838;SDS011;37886;53.174;6.368;2023-03-01T03:10:57;114.80;;;29.38;;
51838;SDS011;37886;53.174;6.368;2023-03-01T03:13:23;238.02;;;36.05;;
51838;SDS011;37886;53.174;6.368;2023-03-01T03:15:53;122.00;;;28.23;;
51838;SDS011;37886;53.174;6.368;2023-03-01T03:18:20;177.13;;;29.17;;
51838;SDS011;37886;53.174;6.368;2023-03-01T03:20:47;231.63;;;35.75;;
51838;SDS011;37886;53.174;6.368;2023-03-01T03:23:17;180.23;;;29.75;;
51838;SDS011;37886;53.174;6.368;2023-03-01T03:25:47;142.90;;;28.52;;
51838;SDS011;37886;53.174;6.368;2023-03-01T03:28:14;96.38;;;26.73;;
51838;SDS011;37886;53.174;6.368;2023-03-01T03:30:41;83.18;;;25.27;;
51838;SDS011;37886;53.174;6.368;2023-03-01T03:33:08;82.65;;;25.65;;
51838;SDS011;37886;53.174;6.368;2023-03-01T03:35:39;103.63;;;27.38;;
51838;SDS011;37886;53.174;6.368;2023-03-01T03:38:12;137.35;;;29.77;;
51838;SDS011;37886;53.174;6.368;2023-03-01T03:40:43;75.50;;;27.45;;
51838;SDS011;37886;53.174;6.368;2023-03-01T03:43:12;69.93;;;27.10;;
51838;SDS011;37886;53.174;6.368;2023-03-01T03:45:46;49.65;;;26.92;;
51838;SDS011;37886;53.174;6.368;2023-03-01T03:50:39;80.68;;;26.95;;
51838;SDS011;37886;53.174;6.368;2023-03-01T03:53:07;101.28;;;27.17;;
51838;SDS011;37886;53.174;6.368;2023-03-01T03:55:36;93.28;;;26.42;;
51838;SDS011;37886;53.174;6.368;2023-03-01T03:58:04;150.75;;;31.67;;
51838;SDS011;37886;53.174;6.368;2023-03-01T04:00:32;103.90;;;31.67;;
51838;SDS011;37886;53.174;6.368;2023-03-01T04:03:02;93.43;;;28.98;;
51838;SDS011;37886;53.174;6.368;2023-03-01T04:05:28;132.95;;;31.55;;
51838;SDS011;37886;53.174;6.368;2023-03-01T04:07:54;131.10;;;29.85;;
51838;SDS011;37886;53.174;6.368;2023-03-01T04:10:27;137.25;;;31.10;;
51838;SDS011;37886;53.174;6.368;2023-03-01T04:13:02;113.63;;;27.90;;
51838;SDS011;37886;53.174;6.368;2023-03-01T04:15:28;136.60;;;29.35;;
51838;SDS011;37886;53.174;6.368;2023-03-01T04:17:55;188.18;;;31.05;;
51838;SDS011;37886;53.174;6.368;2023-03-01T04:20:25;174.93;;;32.45;;
51838;SDS011;37886;53.174;6.368;2023-03-01T04:23:06;253.73;;;33.20;;
51838;SDS011;37886;53.174;6.368;2023-03-01T04:25:46;135.90;;;25.08;;
51838;SDS011;37886;53.174;6.368;2023-03-01T04:28:30;110.65;;;26.67;;
51838;SDS011;37886;53.174;6.368;2023-03-01T04:31:01;107.97;;;24.50;;
51838;SDS011;37886;53.174;6.368;2023-03-01T04:33:38;106.57;;;25.20;;
51838;SDS011;37886;53.174;6.368;2023-03-01T04:36:04;121.78;;;25.48;;
51838;SDS011;37886;53.174;6.368;2023-03-01T04:38:33;144.93;;;27.98;;
51838;SDS011;37886;53.174;6.368;2023-03-01T04:41:01;119.07;;;26.13;;
51838;SDS011;37886;53.174;6.368;2023-03-01T04:43:28;103.30;;;28.58;;
51838;SDS011;37886;53.174;6.368;2023-03-01T04:45:54;146.25;;;27.90;;
51838;SDS011;37886;53.174;6.368;2023-03-01T04:48:19;96.25;;;25.17;;
51838;SDS011;37886;53.174;6.368;2023-03-01T04:50:45;110.85;;;25.02;;
51838;SDS011;37886;53.174;6.368;2023-03-01T04:53:11;86.20;;;26.40;;
51838;SDS011;37886;53.174;6.368;2023-03-01T04:55:36;42.55;;;24.30;;
51838;SDS011;37886;53.174;6.368;2023-03-01T04:58:02;45.75;;;22.23;;
51838;SDS011;37886;53.174;6.368;2023-03-01T05:00:28;35.05;;;22.55;;
51838;SDS011;37886;53.174;6.368;2023-03-01T05:02:57;48.45;;;21.60;;
51838;SDS011;37886;53.174;6.368;2023-03-01T05:05:35;43.38;;;20.95;;
51838;SDS011;37886;53.174;6.368;2023-03-01T05:08:04;74.03;;;21.63;;
51838;SDS011;37886;53.174;6.368;2023-03-01T05:10:32;64.05;;;20.33;;
51838;SDS011;37886;53.174;6.368;2023-03-01T05:13:00;39.42;;;19.95;;
51838;SDS011;37886;53.174;6.368;2023-03-01T05:15:28;46.83;;;19.67;;
51838;SDS011;37886;53.174;6.368;2023-03-01T05:17:56;37.40;;;21.48;;
51838;SDS011;37886;53.174;6.368;2023-03-01T05:20:24;39.78;;;21.88;;
51838;SDS011;37886;53.174;6.368;2023-03-01T05:22:51;30.85;;;19.88;;
51838;SDS011;37886;53.174;6.368;2023-03-01T05:25:19;42.03;;;20.48;;
51838;SDS011;37886;53.174;6.368;2023-03-01T05:27:46;29.90;;;21.42;;
51838;SDS011;37886;53.174;6.368;2023-03-01T05:30:12;42.92;;;25.45;;
51838;SDS011;37886;53.174;6.368;2023-03-01T05:32:45;29.20;;;20.90;;
51838;SDS011;37886;53.174;6.368;2023-03-01T05:35:13;26.73;;;20.40;;
51838;SDS011;37886;53.174;6.368;2023-03-01T05:37:41;40.85;;;22.10;;
51838;SDS011;37886;53.174;6.368;2023-03-01T05:40:09;62.05;;;22.92;;
51838;SDS011;37886;53.174;6.368;2023-03-01T05:42:43;65.22;;;23.95;;
51838;SDS011;37886;53.174;6.368;2023-03-01T05:45:10;86.18;;;24.60;;
51838;SDS011;37886;53.174;6.368;2023-03-01T05:47:37;63.35;;;24.48;;
51838;SDS011;37886;53.174;6.368;2023-03-01T05:50:10;44.42;;;24.65;;
51838;SDS011;37886;53.174;6.368;2023-03-01T05:52:37;35.53;;;23.80;;
51838;SDS011;37886;53.174;6.368;2023-03-01T05:55:03;35.90;;;23.55;;
51838;SDS011;37886;53.174;6.368;2023-03-01T05:57:29;42.78;;;24.92;;
51838;SDS011;37886;53.174;6.368;2023-03-01T05:59:55;35.83;;;23.80;;
51838;SDS011;37886;53.174;6.368;2023-03-01T06:02:21;36.60;;;24.75;;
51838;SDS011;37886;53.174;6.368;2023-03-01T06:04:46;35.28;;;23.67;;
51838;SDS011;37886;53.174;6.368;2023-03-01T06:07:12;35.45;;;24.27;;
51838;SDS011;37886;53.174;6.368;2023-03-01T06:09:37;36.95;;;24.88;;
51838;SDS011;37886;53.174;6.368;2023-03-01T06:12:03;34.10;;;23.80;;
51838;SDS011;37886;53.174;6.368;2023-03-01T06:14:30;37.47;;;25.45;;
51838;SDS011;37886;53.174;6.368;2023-03-01T06:16:55;35.70;;;25.40;;
51838;SDS011;37886;53.174;6.368;2023-03-01T06:19:21;37.38;;;24.95;;
51838;SDS011;37886;53.174;6.368;2023-03-01T06:21:47;35.45;;;25.15;;
51838;SDS011;37886;53.174;6.368;2023-03-01T06:24:12;33.20;;;24.20;;
51838;SDS011;37886;53.174;6.368;2023-03-01T06:26:38;37.00;;;26.08;;
51838;SDS011;37886;53.174;6.368;2023-03-01T06:29:04;47.60;;;30.20;;
51838;SDS011;37886;53.174;6.368;2023-03-01T06:31:29;42.05;;;27.77;;
51838;SDS011;37886;53.174;6.368;2023-03-01T06:33:55;44.75;;;28.88;;
51838;SDS011;37886;53.174;6.368;2023-03-01T06:36:20;39.08;;;25.52;;
51838;SDS011;37886;53.174;6.368;2023-03-01T06:38:47;41.58;;;26.38;;
51838;SDS011;37886;53.174;6.368;2023-03-01T06:41:12;39.13;;;26.15;;
51838;SDS011;37886;53.174;6.368;2023-03-01T06:43:38;37.13;;;25.75;;
51838;SDS011;37886;53.174;6.368;2023-03-01T06:46:04;37.20;;;26.10;;
51838;SDS011;37886;53.174;6.368;2023-03-01T06:48:31;39.42;;;26.65;;
51838;SDS011;37886;53.174;6.368;2023-03-01T06:50:58;38.70;;;25.75;;
51838;SDS011;37886;53.174;6.368;2023-03-01T06:53:26;39.90;;;26.63;;
51838;SDS011;37886;53.174;6.368;2023-03-01T06:55:55;38.67;;;26.73;;
51838;SDS011;37886;53.174;6.368;2023-03-01T06:58:22;45.83;;;27.70;;
51838;SDS011;37886;53.174;6.368;2023-03-01T07:00:48;42.75;;;26.35;;
51838;SDS011;37886;53.174;6.368;2023-03-01T07:03:14;43.17;;;26.75;;
51838;SDS011;37886;53.174;6.368;2023-03-01T07:05:39;38.63;;;25.83;;
51838;SDS011;37886;53.174;6.368;2023-03-01T07:08:05;40.33;;;26.75;;
51838;SDS011;37886;53.174;6.368;2023-03-01T07:10:31;37.40;;;25.73;;
51838;SDS011;37886;53.174;6.368;2023-03-01T07:12:57;36.80;;;25.65;;
51838;SDS011;37886;53.174;6.368;2023-03-01T07:15:23;37.55;;;25.40;;
51838;SDS011;37886;53.174;6.368;2023-03-01T07:17:50;34.17;;;24.38;;
51838;SDS011;37886;53.174;6.368;2023-03-01T07:20:17;36.63;;;25.25;;
51838;SDS011;37886;53.174;6.368;2023-03-01T07:22:43;38.05;;;26.85;;
51838;SDS011;37886;53.174;6.368;2023-03-01T07:25:09;37.22;;;25.00;;
51838;SDS011;37886;53.174;6.368;2023-03-01T07:27:35;36.85;;;27.92;;
51838;SDS011;37886;53.174;6.368;2023-03-01T07:30:01;39.03;;;27.05;;
51838;SDS011;37886;53.174;6.368;2023-03-01T07:32:28;39.63;;;27.83;;
51838;SDS011;37886;53.174;6.368;2023-03-01T07:34:53;41.08;;;29.67;;
51838;SDS011;37886;53.174;6.368;2023-03-01T07:37:19;44.00;;;28.23;;
51838;SDS011;37886;53.174;6.368;2023-03-01T07:39:45;45.85;;;31.23;;
51838;SDS011;37886;53.174;6.368;2023-03-01T07:42:10;47.20;;;30.92;;
51838;SDS011;37886;53.174;6.368;2023-03-01T07:44:36;48.08;;;32.17;;
51838;SDS011;37886;53.174;6.368;2023-03-01T07:47:03;45.17;;;30.95;;
51838;SDS011;37886;53.174;6.368;2023-03-01T07:49:29;48.85;;;31.85;;
51838;SDS011;37886;53.174;6.368;2023-03-01T07:51:55;45.42;;;32.58;;
51838;SDS011;37886;53.174;6.368;2023-03-01T07:54:21;52.95;;;33.78;;
51838;SDS011;37886;53.174;6.368;2023-03-01T07:56:47;51.03;;;31.73;;
51838;SDS011;37886;53.174;6.368;2023-03-01T07:59:12;54.95;;;32.72;;
51838;SDS011;37886;53.174;6.368;2023-03-01T08:01:38;45.40;;;32.05;;
51838;SDS011;37886;53.174;6.368;2023-03-01T08:04:04;45.78;;;33.03;;
51838;SDS011;37886;53.174;6.368;2023-03-01T08:06:33;50.95;;;33.83;;
51838;SDS011;37886;53.174;6.368;2023-03-01T08:08:59;51.25;;;35.47;;
51838;SDS011;37886;53.174;6.368;2023-03-01T08:11:25;52.78;;;34.30;;
51838;SDS011;37886;53.174;6.368;2023-03-01T08:13:53;52.20;;;35.38;;
51838;SDS011;37886;53.174;6.368;2023-03-01T08:16:18;56.33;;;37.25;;
51838;SDS011;37886;53.174;6.368;2023-03-01T08:18:44;52.25;;;35.50;;
51838;SDS011;37886;53.174;6.368;2023-03-01T08:21:11;58.45;;;39.38;;
51838;SDS011;37886;53.174;6.368;2023-03-01T08:23:38;62.00;;;41.42;;
51838;SDS011;37886;53.174;6.368;2023-03-01T08:26:06;64.10;;;40.65;;
51838;SDS011;37886;53.174;6.368;2023-03-01T08:28:33;64.32;;;40.78;;
51838;SDS011;37886;53.174;6.368;2023-03-01T08:30:59;62.95;;;39.42;;
51838;SDS011;37886;53.174;6.368;2023-03-01T08:33:24;63.08;;;40.83;;
51838;SDS011;37886;53.174;6.368;2023-03-01T08:35:50;58.22;;;40.08;;
51838;SDS011;37886;53.174;6.368;2023-03-01T08:38:16;64.55;;;41.95;;
51838;SDS011;37886;53.174;6.368;2023-03-01T08:40:41;70.30;;;41.97;;
51838;SDS011;37886;53.174;6.368;2023-03-01T08:43:07;72.53;;;44.05;;
51838;SDS011;37886;53.174;6.368;2023-03-01T08:45:33;80.68;;;48.65;;
51838;SDS011;37886;53.174;6.368;2023-03-01T08:47:58;80.03;;;47.35;;
51838;SDS011;37886;53.174;6.368;2023-03-01T08:50:24;86.75;;;49.78;;
51838;SDS011;37886;53.174;6.368;2023-03-01T08:52:50;96.82;;;52.05;;
51838;SDS011;37886;53.174;6.368;2023-03-01T08:55:16;98.20;;;55.15;;
51838;SDS011;37886;53.174;6.368;2023-03-01T08:57:42;96.28;;;55.72;;
51838;SDS011;37886;53.174;6.368;2023-03-01T09:00:09;106.65;;;56.47;;
51838;SDS011;37886;53.174;6.368;2023-03-01T09:02:36;104.53;;;56.25;;
51838;SDS011;37886;53.174;6.368;2023-03-01T09:05:02;115.25;;;61.00;;
51838;SDS011;37886;53.174;6.368;2023-03-01T09:07:28;106.70;;;58.95;;
51838;SDS011;37886;53.174;6.368;2023-03-01T09:09:54;119.82;;;62.42;;
51838;SDS011;37886;53.174;6.368;2023-03-01T09:12:20;123.13;;;68.63;;
51838;SDS011;37886;53.174;6.368;2023-03-01T09:14:46;125.97;;;68.57;;
51838;SDS011;37886;53.174;6.368;2023-03-01T09:17:12;144.95;;;73.22;;
51838;SDS011;37886;53.174;6.368;2023-03-01T09:19:38;142.52;;;74.28;;
51838;SDS011;37886;53.174;6.368;2023-03-01T09:22:03;148.85;;;77.35;;
51838;SDS011;37886;53.174;6.368;2023-03-01T09:24:29;147.88;;;78.38;;
51838;SDS011;37886;53.174;6.368;2023-03-01T09:26:55;140.32;;;74.07;;
51838;SDS011;37886;53.174;6.368;2023-03-01T09:29:21;136.57;;;73.60;;
51838;SDS011;37886;53.174;6.368;2023-03-01T09:31:47;124.82;;;74.05;;
51838;SDS011;37886;53.174;6.368;2023-03-01T09:34:13;118.50;;;72.05;;
51838;SDS011;37886;53.174;6.368;2023-03-01T09:36:41;109.75;;;65.65;;
51838;SDS011;37886;53.174;6.368;2023-03-01T09:39:06;107.72;;;65.93;;
51838;SDS011;37886;53.174;6.368;2023-03-01T09:41:36;100.60;;;63.05;;
51838;SDS011;37886;53.174;6.368;2023-03-01T09:45:05;102.10;;;62.80;;
51838;SDS011;37886;53.174;6.368;2023-03-01T09:47:08;101.38;;;62.85;;
51838;SDS011;37886;53.174;6.368;2023-03-01T09:49:40;96.50;;;60.95;;
51838;SDS011;37886;53.174;6.368;2023-03-01T09:55:11;75.50;;;50.03;;
51838;SDS011;37886;53.174;6.368;2023-03-01T10:03:11;67.07;;;44.38;;
51838;SDS011;37886;53.174;6.368;2023-03-01T10:05:47;52.50;;;38.08;;
51838;SDS011;37886;53.174;6.368;2023-03-01T10:16:16;47.90;;;34.50;;
51838;SDS011;37886;53.174;6.368;2023-03-01T10:18:50;50.63;;;36.50;;
51838;SDS011;37886;53.174;6.368;2023-03-01T10:21:20;48.20;;;33.75;;
51838;SDS011;37886;53.174;6.368;2023-03-01T10:23:46;44.35;;;33.10;;
51838;SDS011;37886;53.174;6.368;2023-03-01T10:26:26;44.17;;;32.22;;
51838;SDS011;37886;53.174;6.368;2023-03-01T10:31:32;50.65;;;35.40;;
51838;SDS011;37886;53.174;6.368;2023-03-01T10:34:10;48.80;;;35.20;;
51838;SDS011;37886;53.174;6.368;2023-03-01T10:36:44;50.35;;;34.78;;
51838;SDS011;37886;53.174;6.368;2023-03-01T10:39:14;49.60;;;35.20;;
51838;SDS011;37886;53.174;6.368;2023-03-01T10:42:18;47.58;;;36.55;;
51838;SDS011;37886;53.174;6.368;2023-03-01T10:44:46;52.53;;;36.47;;
51838;SDS011;37886;53.174;6.368;2023-03-01T10:49:54;41.47;;;31.70;;
51838;SDS011;37886;53.174;6.368;2023-03-01T10:52:23;47.78;;;34.63;;
51838;SDS011;37886;53.174;6.368;2023-03-01T10:54:53;47.83;;;33.93;;
51838;SDS011;37886;53.174;6.368;2023-03-01T10:57:40;45.67;;;33.60;;
51838;SDS011;37886;53.174;6.368;2023-03-01T11:00:14;40.63;;;31.48;;
51838;SDS011;37886;53.174;6.368;2023-03-01T11:02:49;36.88;;;29.08;;
51838;SDS011;37886;53.174;6.368;2023-03-01T11:05:28;40.05;;;31.35;;
51838;SDS011;37886;53.174;6.368;2023-03-01T11:07:58;41.40;;;31.55;;
51838;SDS011;37886;53.174;6.368;2023-03-01T11:10:26;43.05;;;30.73;;
51838;SDS011;37886;53.174;6.368;2023-03-01T11:13:05;42.85;;;31.70;;
51838;SDS011;37886;53.174;6.368;2023-03-01T11:15:34;40.30;;;29.40;;
51838;SDS011;37886;53.174;6.368;2023-03-01T11:18:00;36.88;;;29.00;;
51838;SDS011;37886;53.174;6.368;2023-03-01T11:20:36;33.72;;;27.20;;
51838;SDS011;37886;53.174;6.368;2023-03-01T11:23:09;35.53;;;28.67;;
51838;SDS011;37886;53.174;6.368;2023-03-01T11:25:37;35.65;;;27.17;;
51838;SDS011;37886;53.174;6.368;2023-03-01T11:28:09;33.75;;;27.55;;
51838;SDS011;37886;53.174;6.368;2023-03-01T11:36:54;35.28;;;27.50;;
51838;SDS011;37886;53.174;6.368;2023-03-01T11:38:56;38.85;;;27.88;;
51838;SDS011;37886;53.174;6.368;2023-03-01T11:41:28;38.25;;;28.10;;
51838;SDS011;37886;53.174;6.368;2023-03-01T11:44:04;36.42;;;26.70;;
51838;SDS011;37886;53.174;6.368;2023-03-01T11:47:03;36.10;;;27.80;;
51838;SDS011;37886;53.174;6.368;2023-03-01T12:01:12;27.02;;;23.67;;
51838;SDS011;37886;53.174;6.368;2023-03-01T12:09:19;27.35;;;22.65;;
51838;SDS011;37886;53.174;6.368;2023-03-01T12:26:05;26.40;;;23.08;;
51838;SDS011;37886;53.174;6.368;2023-03-01T12:31:35;29.02;;;24.38;;
51838;SDS011;37886;53.174;6.368;2023-03-01T12:49:48;28.75;;;25.88;;
51838;SDS011;37886;53.174;6.368;2023-03-01T12:52:36;27.30;;;24.73;;
51838;SDS011;37886;53.174;6.368;2023-03-01T12:55:08;29.88;;;26.98;;
51838;SDS011;37886;53.174;6.368;2023-03-01T13:00:41;28.38;;;25.77;;
51838;SDS011;37886;53.174;6.368;2023-03-01T13:06:04;28.23;;;25.45;;
51838;SDS011;37886;53.174;6.368;2023-03-01T13:09:05;29.48;;;26.65;;
51838;SDS011;37886;53.174;6.368;2023-03-01T13:11:32;28.67;;;25.98;;
51838;SDS011;37886;53.174;6.368;2023-03-01T13:16:48;29.80;;;27.05;;
51838;SDS011;37886;53.174;6.368;2023-03-01T13:19:22;27.95;;;25.45;;
51838;SDS011;37886;53.174;6.368;2023-03-01T13:21:50;28.25;;;25.55;;
51838;SDS011;37886;53.174;6.368;2023-03-01T13:24:26;28.77;;;26.15;;
51838;SDS011;37886;53.174;6.368;2023-03-01T13:29:49;29.75;;;26.73;;
51838;SDS011;37886;53.174;6.368;2023-03-01T13:35:59;27.55;;;25.00;;
51838;SDS011;37886;53.174;6.368;2023-03-01T13:41:02;27.95;;;25.25;;
51838;SDS011;37886;53.174;6.368;2023-03-01T13:43:32;27.95;;;24.92;;
51838;SDS011;37886;53.174;6.368;2023-03-01T13:46:15;29.45;;;26.20;;
51838;SDS011;37886;53.174;6.368;2023-03-01T13:48:41;26.98;;;24.55;;
51838;SDS011;37886;53.174;6.368;2023-03-01T13:51:10;26.52;;;23.90;;
51838;SDS011;37886;53.174;6.368;2023-03-01T13:53:42;27.52;;;24.70;;
51838;SDS011;37886;53.174;6.368;2023-03-01T13:58:53;25.08;;;22.63;;
51838;SDS011;37886;53.174;6.368;2023-03-01T14:01:25;25.90;;;23.40;;
51838;SDS011;37886;53.174;6.368;2023-03-01T14:03:58;26.00;;;23.48;;
51838;SDS011;37886;53.174;6.368;2023-03-01T14:06:28;26.23;;;23.83;;
51838;SDS011;37886;53.174;6.368;2023-03-01T14:09:16;25.85;;;23.42;;
51838;SDS011;37886;53.174;6.368;2023-03-01T14:12:02;26.27;;;23.57;;
51838;SDS011;37886;53.174;6.368;2023-03-01T14:17:12;28.45;;;25.73;;
51838;SDS011;37886;53.174;6.368;2023-03-01T14:19:56;27.52;;;24.80;;
51838;SDS011;37886;53.174;6.368;2023-03-01T14:22:24;28.88;;;25.27;;
51838;SDS011;37886;53.174;6.368;2023-03-01T14:25:16;26.33;;;23.83;;
51838;SDS011;37886;53.174;6.368;2023-03-01T14:27:42;25.92;;;23.27;;
51838;SDS011;37886;53.174;6.368;2023-03-01T14:30:19;25.30;;;22.90;;
51838;SDS011;37886;53.174;6.368;2023-03-01T14:32:59;28.30;;;25.70;;
51838;SDS011;37886;53.174;6.368;2023-03-01T14:35:28;27.55;;;25.20;;
51838;SDS011;37886;53.174;6.368;2023-03-01T14:37:56;26.40;;;23.80;;
51838;SDS011;37886;53.174;6.368;2023-03-01T14:40:27;25.10;;;22.83;;
51838;SDS011;37886;53.174;6.368;2023-03-01T14:43:00;26.10;;;23.88;;
51838;SDS011;37886;53.174;6.368;2023-03-01T14:45:27;24.85;;;22.48;;
51838;SDS011;37886;53.174;6.368;2023-03-01T14:47:55;24.27;;;22.10;;
51838;SDS011;37886;53.174;6.368;2023-03-01T14:53:35;24.80;;;22.42;;
51838;SDS011;37886;53.174;6.368;2023-03-01T14:55:56;24.60;;;22.38;;
51838;SDS011;37886;53.174;6.368;2023-03-01T14:58:29;25.75;;;23.33;;
51838;SDS011;37886;53.174;6.368;2023-03-01T15:00:59;27.05;;;24.50;;
51838;SDS011;37886;53.174;6.368;2023-03-01T15:05:57;26.75;;;24.13;;
51838;SDS011;37886;53.174;6.368;2023-03-01T15:08:25;25.95;;;23.55;;
51838;SDS011;37886;53.174;6.368;2023-03-01T15:13:25;27.63;;;24.88;;
51838;SDS011;37886;53.174;6.368;2023-03-01T15:15:53;27.92;;;25.30;;
51838;SDS011;37886;53.174;6.368;2023-03-01T15:18:30;28.02;;;25.42;;
51838;SDS011;37886;53.174;6.368;2023-03-01T15:21:05;29.20;;;26.00;;
51838;SDS011;37886;53.174;6.368;2023-03-01T15:23:40;28.65;;;25.77;;
51838;SDS011;37886;53.174;6.368;2023-03-01T15:26:06;28.92;;;25.98;;
51838;SDS011;37886;53.174;6.368;2023-03-01T15:28:49;28.73;;;26.02;;
51838;SDS011;37886;53.174;6.368;2023-03-01T15:31:20;29.88;;;26.80;;
51838;SDS011;37886;53.174;6.368;2023-03-01T15:33:47;29.90;;;26.98;;
51838;SDS011;37886;53.174;6.368;2023-03-01T15:36:33;30.27;;;27.45;;
51838;SDS011;37886;53.174;6.368;2023-03-01T15:39:01;33.08;;;29.73;;
51838;SDS011;37886;53.174;6.368;2023-03-01T15:44:25;31.17;;;28.13;;
51838;SDS011;37886;53.174;6.368;2023-03-01T15:46:52;31.05;;;28.00;;
51838;SDS011;37886;53.174;6.368;2023-03-01T15:52:12;28.92;;;26.25;;
51838;SDS011;37886;53.174;6.368;2023-03-01T15:54:43;31.67;;;28.50;;
51838;SDS011;37886;53.174;6.368;2023-03-01T15:57:14;30.33;;;27.17;;
51838;SDS011;37886;53.174;6.368;2023-03-01T15:59:40;29.45;;;26.75;;
51838;SDS011;37886;53.174;6.368;2023-03-01T16:02:12;31.35;;;28.20;;
51838;SDS011;37886;53.174;6.368;2023-03-01T16:04:40;30.40;;;27.70;;
51838;SDS011;37886;53.174;6.368;2023-03-01T16:07:05;29.73;;;26.80;;
51838;SDS011;37886;53.174;6.368;2023-03-01T16:09:31;29.25;;;26.45;;
51838;SDS011;37886;53.174;6.368;2023-03-01T16:11:57;29.25;;;26.42;;
51838;SDS011;37886;53.174;6.368;2023-03-01T16:14:23;29.70;;;26.90;;
51838;SDS011;37886;53.174;6.368;2023-03-01T16:16:48;30.25;;;27.30;;
51838;SDS011;37886;53.174;6.368;2023-03-01T16:19:14;30.08;;;27.15;;
51838;SDS011;37886;53.174;6.368;2023-03-01T16:21:41;29.30;;;26.25;;
51838;SDS011;37886;53.174;6.368;2023-03-01T16:24:08;30.50;;;27.58;;
51838;SDS011;37886;53.174;6.368;2023-03-01T16:26:35;29.60;;;26.45;;
51838;SDS011;37886;53.174;6.368;2023-03-01T16:29:02;31.27;;;27.75;;
51838;SDS011;37886;53.174;6.368;2023-03-01T16:31:29;38.58;;;28.88;;
51838;SDS011;37886;53.174;6.368;2023-03-01T16:33:56;31.50;;;27.58;;
51838;SDS011;37886;53.174;6.368;2023-03-01T16:36:23;29.95;;;26.67;;
51838;SDS011;37886;53.174;6.368;2023-03-01T16:38:52;31.38;;;26.75;;
51838;SDS011;37886;53.174;6.368;2023-03-01T16:41:19;33.95;;;27.48;;
51838;SDS011;37886;53.174;6.368;2023-03-01T16:43:46;35.03;;;25.30;;